Terminal Aerodrome Forecast
Issued by NWS

Current Version | Previous Version | Text Only | Print | Product List | Glossary On
Versions: 1 2 3 4 5 6 7 8 9 10 11 12 13 14 15 16 17 18
160
FTUS45 KRIW 290520
TAFRKS
TAF
KRKS 290520Z 2906/3006 VRB06KT P6SM SCT030 BKN050
      TEMPO 2906/2908 BKN025
     FM291000 VRB04KT P6SM VCFG SCT006
      TEMPO 2911/2915 BKN006
     FM291900 27012G20KT P6SM SCT120 BKN200
     FM300100 25012KT P6SM SCT080 BKN150=

USA.gov is the U.S. government's official web portal to all federal, state and local government web resources and services.